Time;durP1;ratioP1;P1;durP2;ratioP2;P2;SDS_P1;SDS_P2;PMS_P1;PMS_P2;Temp;Humidity;BMP_temperature;BMP_pressure;BME280_temperature;BME280_humidity;BME280_pressure;Samples;Min_cycle;Max_cycle;Signal;HPM_P1;HPM_P2
2021/12/01 00:01:12;;;;;;;7.17;4.47;;;;;;;-1.83;81.93;94725.75;5119228;27;20652;-66
2021/12/01 00:03:40;;;;;;;5.03;4.60;;;;;;;-1.84;83.56;94726.56;5120874;28;20232;-66
2021/12/01 00:06:09;;;;;;;6.30;4.73;;;;;;;-1.78;83.45;94729.13;5119053;28;20228;-66
2021/12/01 00:08:36;;;;;;;8.63;4.33;;;;;;;-1.62;83.21;94705.97;5120955;28;20184;-66
2021/12/01 00:11:03;;;;;;;5.83;4.87;;;;;;;-1.81;82.59;94719.13;5119916;28;20251;-66
2021/12/01 00:13:32;;;;;;;5.43;4.20;;;;;;;-1.64;82.30;94722.56;5120805;27;20228;-67
2021/12/01 00:15:59;;;;;;;5.07;4.57;;;;;;;-1.66;81.36;94708.44;5120941;27;20633;-65
2021/12/01 00:18:28;;;;;;;4.60;4.20;;;;;;;-1.79;82.47;94692.56;5119581;28;20245;-65
2021/12/01 00:20:55;;;;;;;7.20;4.57;;;;;;;-1.80;82.13;94691.75;5119534;27;20228;-66
2021/12/01 00:23:21;;;;;;;4.90;4.23;;;;;;;-1.71;82.44;94704.25;5120372;28;20232;-66
2021/12/01 00:25:48;;;;;;;7.53;4.90;;;;;;;-1.53;81.40;94695.25;5120686;28;20224;-66
2021/12/01 00:28:15;;;;;;;5.47;4.33;;;;;;;-1.80;82.13;94695.88;5119331;27;20266;-66
2021/12/01 00:30:42;;;;;;;5.50;4.50;;;;;;;-1.87;81.21;94704.13;5119773;27;20200;-66
2021/12/01 00:33:11;;;;;;;11.43;5.03;;;;;;;-2.03;82.24;94703.16;5122015;27;20192;-65
2021/12/01 00:35:39;;;;;;;4.80;4.30;;;;;;;-2.20;81.97;94700.50;5123298;27;20256;-66
2021/12/01 00:38:06;;;;;;;7.23;5.00;;;;;;;-1.91;82.17;94709.91;5123900;27;20227;-65
2021/12/01 00:40:33;;;;;;;6.83;4.47;;;;;;;-1.61;80.98;94711.78;5123279;27;20228;-66
2021/12/01 00:43:00;;;;;;;8.40;4.67;;;;;;;-1.49;79.40;94712.72;5123617;27;20197;-66
2021/12/01 00:45:28;;;;;;;5.37;4.73;;;;;;;-1.60;79.74;94693.53;5123315;27;20193;-65
2021/12/01 00:47:55;;;;;;;5.90;5.20;;;;;;;-1.49;79.75;94707.75;5124842;27;20228;-66
2021/12/01 00:50:25;;;;;;;6.63;4.63;;;;;;;-1.77;82.31;94691.75;5123696;27;20673;-67
2021/12/01 00:52:56;;;;;;;5.17;4.60;;;;;;;-1.50;82.11;94696.09;5124436;27;20655;-66
2021/12/01 00:55:23;;;;;;;7.43;3.93;;;;;;;-1.52;80.80;94692.75;5122819;27;20257;-67
2021/12/01 00:57:51;;;;;;;13.00;4.93;;;;;;;-1.72;81.00;94706.72;5122638;27;20297;-67
2021/12/01 01:00:20;;;;;;;11.70;5.97;;;;;;;-1.47;79.46;94691.13;5123586;27;20196;-67
2021/12/01 01:02:46;;;;;;;10.77;4.30;;;;;;;-1.44;81.13;94700.28;5122617;27;20245;-67
2021/12/01 01:05:14;;;;;;;5.87;4.10;;;;;;;-1.37;79.47;94692.84;5124388;27;20263;-68
2021/12/01 01:07:41;;;;;;;4.63;3.83;;;;;;;-1.48;79.16;94688.59;5124013;27;20292;-67
2021/12/01 01:10:34;;;;;;;5.40;4.00;;;;;;;-1.49;79.33;94675.34;5122901;27;20197;-67
2021/12/01 01:18:38;;;;;;;5.97;3.77;;;;;;;-2.28;81.42;94719.53;5123758;27;20260;-67
2021/12/01 01:21:06;;;;;;;5.30;3.17;;;;;;;-2.11;82.25;94708.06;5122070;27;20200;-67
2021/12/01 01:23:35;;;;;;;8.00;3.60;;;;;;;-1.85;81.05;94702.47;5121826;27;20579;-66
2021/12/01 01:26:05;;;;;;;6.33;4.10;;;;;;;-1.74;80.05;94703.41;5123119;27;20227;-66
2021/12/01 01:28:32;;;;;;;4.10;3.70;;;;;;;-1.90;81.17;94709.06;5123877;27;20754;-67
2021/12/01 01:31:00;;;;;;;5.00;4.03;;;;;;;-1.52;79.91;94717.69;5121886;27;20288;-66
2021/12/01 01:33:27;;;;;;;5.40;3.50;;;;;;;-1.45;78.93;94723.53;5123038;27;20253;-66
2021/12/01 01:35:54;;;;;;;8.40;3.20;;;;;;;-1.34;79.64;94721.94;5121367;27;20239;-66
2021/12/01 01:38:21;;;;;;;4.23;3.83;;;;;;;-1.29;79.92;94714.50;5121994;27;20628;-66
2021/12/01 01:40:48;;;;;;;5.00;3.70;;;;;;;-1.26;78.62;94715.34;5123415;27;20746;-65
2021/12/01 01:43:16;;;;;;;6.70;3.53;;;;;;;-1.44;79.77;94711.06;5121514;27;20284;-66
2021/12/01 01:45:43;;;;;;;3.23;2.93;;;;;;;-1.46;81.20;94700.25;5122889;27;20289;-67
2021/12/01 01:48:12;;;;;;;3.70;3.40;;;;;;;-1.48;81.78;94686.13;5121330;27;20207;-66
2021/12/01 01:50:42;;;;;;;13.17;4.13;;;;;;;-1.65;79.66;94676.06;5122784;27;20211;-67
2021/12/01 01:53:12;;;;;;;3.83;3.53;;;;;;;-1.27;78.38;94687.94;5121721;27;20611;-66
2021/12/01 01:55:41;;;;;;;6.67;3.97;;;;;;;-1.23;78.50;94692.06;5122813;27;20204;-67
2021/12/01 01:58:08;;;;;;;9.50;3.43;;;;;;;-1.30;78.87;94681.25;5121186;27;20296;-66
2021/12/01 02:00:44;;;;;;;3.90;3.50;;;;;;;-1.30;79.03;94702.88;5120981;27;20693;-66
2021/12/01 02:03:12;;;;;;;4.50;3.67;;;;;;;-1.48;79.83;94693.59;5122349;27;20207;-66
2021/12/01 02:05:40;;;;;;;3.53;3.23;;;;;;;-1.21;80.31;94692.91;5121067;27;20219;-66
2021/12/01 02:08:15;;;;;;;4.13;3.70;;;;;;;-1.26;79.48;94685.44;5121539;27;20277;-66
2021/12/01 02:10:42;;;;;;;5.23;3.87;;;;;;;-1.16;80.21;94687.13;5120883;27;20200;-67
2021/12/01 02:13:09;;;;;;;14.00;4.00;;;;;;;-1.29;79.27;94687.09;5121830;27;20204;-66
2021/12/01 02:15:37;;;;;;;5.60;3.80;;;;;;;-1.01;78.30;94683.06;5121518;27;20227;-66
2021/12/01 02:18:04;;;;;;;4.13;3.83;;;;;;;-1.17;80.05;94684.63;5122101;27;20791;-66
2021/12/01 02:20:32;;;;;;;4.97;3.80;;;;;;;-1.20;80.48;94694.59;5120930;27;20200;-66
2021/12/01 02:23:00;;;;;;;4.13;3.83;;;;;;;-1.33;80.73;94688.72;5121978;27;20612;-66
2021/12/01 02:25:28;;;;;;;4.53;3.73;;;;;;;-1.35;81.24;94695.34;5120474;27;20246;-66
2021/12/01 02:27:55;;;;;;;6.87;4.43;;;;;;;-1.27;82.02;94663.00;5122263;27;20643;-67
2021/12/01 02:30:23;;;;;;;5.57;5.03;;;;;;;-1.39;81.95;94674.56;5120066;27;20212;-67
2021/12/01 02:32:50;;;;;;;5.70;4.53;;;;;;;-1.32;81.61;94670.44;5121750;27;21005;-66
2021/12/01 02:35:16;;;;;;;5.03;4.50;;;;;;;-1.18;81.43;94673.00;5120090;27;20217;-66
2021/12/01 02:37:45;;;;;;;5.60;5.10;;;;;;;-1.31;82.08;94666.28;5120214;27;20208;-67
2021/12/01 02:40:13;;;;;;;7.47;5.93;;;;;;;-1.66;83.39;94661.94;5121547;27;20201;-66
2021/12/01 02:42:39;;;;;;;5.77;5.17;;;;;;;-1.59;83.82;94656.16;5121769;27;20219;-66
2021/12/01 02:45:07;;;;;;;8.17;5.10;;;;;;;-1.60;84.21;94649.53;5119947;27;20308;-67
2021/12/01 02:47:35;;;;;;;9.13;4.63;;;;;;;-1.46;85.71;94647.94;5121821;27;20270;-66
2021/12/01 02:50:02;;;;;;;10.10;4.40;;;;;;;-1.48;86.19;94654.56;5120059;27;20596;-67
2021/12/01 02:52:33;;;;;;;7.03;4.87;;;;;;;-1.31;86.57;94667.13;5119897;27;20630;-67
2021/12/01 02:55:04;;;;;;;7.50;5.37;;;;;;;-1.09;83.76;94683.03;5121166;27;20285;-66
2021/12/01 02:57:41;;;;;;;12.47;6.33;;;;;;;-1.12;82.55;94678.03;5118533;27;20232;-65
2021/12/01 03:00:09;;;;;;;11.90;6.73;;;;;;;-1.13;82.14;94681.34;5121461;27;20727;-66
2021/12/01 03:02:36;;;;;;;8.47;5.93;;;;;;;-1.07;81.81;94687.19;5120232;27;20721;-67
2021/12/01 03:05:03;;;;;;;7.63;5.30;;;;;;;-1.46;82.92;94680.31;5119769;27;20921;-66
2021/12/01 03:07:32;;;;;;;11.30;5.27;;;;;;;-1.73;83.48;94646.09;5119315;27;20220;-67
2021/12/01 03:09:59;;;;;;;7.33;6.23;;;;;;;-1.54;83.94;94652.06;5121099;27;20204;-66
2021/12/01 03:12:29;;;;;;;10.57;6.10;;;;;;;-1.34;82.92;94661.28;5121289;27;20208;-67
2021/12/01 03:14:56;;;;;;;6.87;6.20;;;;;;;-1.32;83.97;94672.94;5120315;27;20204;-66
2021/12/01 03:17:23;;;;;;;6.70;5.70;;;;;;;-1.09;81.68;94668.06;5119227;27;20204;-66
2021/12/01 03:19:50;;;;;;;6.73;5.90;;;;;;;-1.09;83.33;94673.06;5121591;27;20290;-66
2021/12/01 03:22:17;;;;;;;6.03;5.40;;;;;;;-1.26;83.40;94680.47;5120487;27;20762;-66
2021/12/01 03:24:43;;;;;;;7.97;6.10;;;;;;;-1.43;85.85;94670.38;5119113;27;21073;-66
2021/12/01 03:27:10;;;;;;;7.57;6.43;;;;;;;-1.22;85.55;94691.25;5120774;27;20723;-66
2021/12/01 03:29:38;;;;;;;6.70;5.37;;;;;;;-1.35;86.71;94689.53;5120450;27;20196;-66
2021/12/01 03:32:07;;;;;;;7.23;5.47;;;;;;;-1.24;86.93;94697.91;5120445;27;20297;-65
2021/12/01 03:34:35;;;;;;;6.50;3.57;;;;;;;-1.19;85.04;94702.09;5119168;27;20215;-67
2021/12/01 03:37:02;;;;;;;3.37;3.07;;;;;;;-0.90;83.97;94704.72;5120522;27;20192;-65
2021/12/01 03:39:29;;;;;;;5.90;3.57;;;;;;;-0.88;84.28;94710.56;5119279;27;20260;-66
2021/12/01 03:41:56;;;;;;;3.30;3.10;;;;;;;-0.84;82.13;94707.25;5121124;27;20205;-66
2021/12/01 03:44:23;;;;;;;5.27;2.17;;;;;;;-0.92;81.90;94706.38;5119740;27;20285;-66
2021/12/01 03:46:52;;;;;;;3.00;2.80;;;;;;;-0.92;83.42;94703.03;5120219;28;20204;-66
2021/12/01 03:49:19;;;;;;;4.13;3.17;;;;;;;-1.01;83.43;94698.88;5121343;28;20204;-65
2021/12/01 03:51:46;;;;;;;3.20;2.97;;;;;;;-1.16;83.55;94701.25;5119366;28;20673;-66
2021/12/01 03:54:13;;;;;;;3.33;2.93;;;;;;;-0.97;82.62;94698.03;5121321;27;20285;-68
2021/12/01 03:56:40;;;;;;;4.23;2.63;;;;;;;-1.24;85.14;94698.75;5119918;28;20287;-66
2021/12/01 03:59:06;;;;;;;2.60;2.40;;;;;;;-0.96;84.11;94702.19;5121103;28;20218;-66
2021/12/01 04:01:36;;;;;;;3.30;3.10;;;;;;;-1.09;84.80;94688.84;5119610;28;21533;-65
2021/12/01 04:04:04;;;;;;;3.37;3.07;;;;;;;-0.86;83.60;94696.44;5120969;28;20648;-66
2021/12/01 04:06:32;;;;;;;4.40;3.40;;;;;;;-0.69;82.41;94689.81;5119713;28;20669;-65
2021/12/01 04:08:59;;;;;;;6.90;3.37;;;;;;;-0.80;82.36;94690.63;5122618;27;20249;-65
2021/12/01 04:11:26;;;;;;;4.03;3.63;;;;;;;-0.72;82.26;94687.31;5124746;27;20709;-65
2021/12/01 04:13:56;;;;;;;5.00;3.80;;;;;;;-0.79;82.18;94692.31;5123753;27;20236;-66
2021/12/01 04:16:23;;;;;;;5.87;3.87;;;;;;;-0.65;82.69;94680.69;5125331;27;20223;-66
2021/12/01 04:18:50;;;;;;;4.90;3.37;;;;;;;-0.44;82.25;94684.91;5124730;27;20192;-66
2021/12/01 04:21:20;;;;;;;4.07;3.77;;;;;;;-0.27;81.50;94693.28;5123952;27;20592;-66
2021/12/01 04:23:47;;;;;;;3.83;3.17;;;;;;;-0.38;80.55;94685.75;5124104;27;20204;-66
2021/12/01 04:26:18;;;;;;;4.67;3.23;;;;;;;-0.58;82.12;94669.06;5124568;27;20786;-66
2021/12/01 04:28:45;;;;;;;3.83;3.23;;;;;;;-0.65;82.62;94672.38;5124096;27;20276;-66
2021/12/01 04:31:12;;;;;;;3.73;2.90;;;;;;;-0.50;81.97;94675.75;5123592;27;20293;-67
2021/12/01 04:33:38;;;;;;;6.97;2.87;;;;;;;-0.51;82.10;94673.25;5123664;27;20204;-66
2021/12/01 04:36:05;;;;;;;9.73;3.50;;;;;;;-0.60;82.54;94684.03;5124381;27;20216;-65
2021/12/01 04:38:34;;;;;;;5.90;3.40;;;;;;;-0.70;84.11;94685.66;5123084;27;20204;-65
2021/12/01 04:41:01;;;;;;;3.40;3.10;;;;;;;-0.65;83.75;94690.69;5123248;27;20212;-66
2021/12/01 04:43:28;;;;;;;6.63;3.93;;;;;;;-0.85;84.87;94698.09;5124693;27;20207;-66
2021/12/01 04:45:58;;;;;;;6.60;3.87;;;;;;;-0.68;84.08;94696.50;5122876;27;20304;-67
2021/12/01 04:48:25;;;;;;;7.20;3.87;;;;;;;-0.58;83.20;94684.88;5124303;27;20200;-66
2021/12/01 04:50:52;;;;;;;3.50;3.20;;;;;;;-0.58;83.46;94696.53;5123149;27;20189;-66
2021/12/01 04:53:19;;;;;;;5.87;3.77;;;;;;;-0.60;82.70;94704.00;5124592;27;20229;-66
2021/12/01 04:55:47;;;;;;;9.77;3.20;;;;;;;-0.57;82.79;94708.19;5122943;27;20208;-66
2021/12/01 04:58:15;;;;;;;7.10;3.47;;;;;;;-0.56;82.72;94702.34;5124137;27;20201;-66
2021/12/01 05:00:42;;;;;;;3.80;3.50;;;;;;;-0.32;81.55;94719.06;5122983;27;20204;-66
2021/12/01 05:03:09;;;;;;;8.93;4.10;;;;;;;-0.38;81.96;94715.72;5123286;27;20228;-67
2021/12/01 05:05:36;;;;;;;8.13;4.20;;;;;;;-0.68;82.52;94721.44;5124106;27;20288;-66
2021/12/01 05:08:03;;;;;;;5.20;4.30;;;;;;;-0.53;83.13;94724.84;5122473;27;21232;-67
2021/12/01 05:10:31;;;;;;;6.87;4.73;;;;;;;-0.62;83.22;94732.28;5124017;27;20223;-67
2021/12/01 05:12:59;;;;;;;4.77;4.23;;;;;;;-0.50;82.88;94750.63;5122519;27;20273;-66
2021/12/01 05:15:26;;;;;;;8.03;4.70;;;;;;;-0.77;83.28;94746.38;5124021;27;20204;-66
2021/12/01 05:17:52;;;;;;;7.93;4.67;;;;;;;-0.78;83.77;94742.22;5122555;27;20272;-67
2021/12/01 05:20:20;;;;;;;5.33;3.57;;;;;;;-0.88;85.05;94738.00;5122952;27;20201;-67
2021/12/01 05:22:47;;;;;;;7.47;3.47;;;;;;;-0.72;83.33;94737.22;5122849;27;20253;-66
2021/12/01 05:25:14;;;;;;;5.83;3.87;;;;;;;-0.77;83.74;94746.38;5123408;27;20387;-66
2021/12/01 05:27:40;;;;;;;5.30;2.70;;;;;;;-0.65;84.24;94754.72;5123271;27;20244;-65
2021/12/01 05:30:10;;;;;;;4.70;4.23;;;;;;;-0.60;84.27;94748.94;5123946;27;20654;-66
2021/12/01 05:32:36;;;;;;;6.67;4.80;;;;;;;-0.53;84.52;94744.81;5122461;27;20212;-65
2021/12/01 05:35:04;;;;;;;7.50;4.03;;;;;;;-0.46;83.37;94743.97;5123810;27;20668;-66
2021/12/01 05:37:31;;;;;;;9.30;4.00;;;;;;;-0.45;83.57;94743.16;5121680;27;20200;-66
2021/12/01 05:39:58;;;;;;;6.80;3.60;;;;;;;-0.38;83.14;94739.84;5122906;27;20249;-66
2021/12/01 05:42:24;;;;;;;3.87;3.40;;;;;;;-0.62;85.39;94740.59;5123823;27;20231;-67
2021/12/01 05:44:51;;;;;;;8.83;4.63;;;;;;;-0.56;84.67;94739.78;5122643;27;20340;-66
2021/12/01 05:47:19;;;;;;;4.37;4.03;;;;;;;-0.52;85.00;94729.84;5122232;27;20200;-66
2021/12/01 05:49:46;;;;;;;6.13;4.50;;;;;;;-0.40;84.78;94736.50;5123154;27;20591;-66
2021/12/01 05:52:15;;;;;;;10.30;5.00;;;;;;;-0.35;85.33;94744.84;5121873;27;20293;-67
2021/12/01 05:54:44;;;;;;;9.07;5.97;;;;;;;-0.53;85.59;94734.81;5123336;27;20597;-67
2021/12/01 05:57:11;;;;;;;13.30;5.77;;;;;;;-0.52;86.03;94752.28;5122820;27;20207;-67
2021/12/01 05:59:38;;;;;;;10.37;6.83;;;;;;;-0.58;87.28;94746.44;5121644;27;20620;-67
2021/12/01 06:02:05;;;;;;;16.93;8.77;;;;;;;-0.48;85.73;94743.13;5121719;27;20228;-67
2021/12/01 06:04:33;;;;;;;13.17;6.83;;;;;;;-0.50;86.23;94740.66;5123386;27;20200;-67
2021/12/01 06:07:00;;;;;;;11.27;5.87;;;;;;;-0.45;86.51;94738.16;5120703;27;20228;-67
2021/12/01 06:09:27;;;;;;;10.20;6.43;;;;;;;-0.15;85.78;94748.22;5122961;27;20189;-67
2021/12/01 06:11:55;;;;;;;7.40;5.90;;;;;;;0.77;83.21;94738.25;5121493;27;20208;-67
2021/12/01 06:14:22;;;;;;;9.97;4.50;;;;;;;1.39;78.92;94734.78;5123217;27;20714;-66
2021/12/01 06:16:49;;;;;;;13.83;4.43;;;;;;;1.47;79.91;94738.09;5121706;27;20524;-67
2021/12/01 06:19:17;;;;;;;3.37;3.07;;;;;;;1.53;79.84;94733.03;5122252;27;20253;-67
2021/12/01 06:21:45;;;;;;;4.23;2.43;;;;;;;1.43;80.84;94733.94;5120921;27;20685;-67
2021/12/01 06:24:12;;;;;;;2.50;2.30;;;;;;;1.43;79.60;94746.47;5120945;27;20200;-67
2021/12/01 06:26:39;;;;;;;3.63;1.93;;;;;;;1.40;80.60;94754.81;5122456;27;20251;-67
2021/12/01 06:29:06;;;;;;;3.80;3.50;;;;;;;1.38;80.40;94763.16;5121093;27;20207;-66
2021/12/01 06:31:32;;;;;;;3.70;1.70;;;;;;;1.54;80.63;94774.78;5122394;27;20200;-67
2021/12/01 06:34:00;;;;;;;5.00;1.70;;;;;;;1.65;81.08;94763.06;5122339;27;20654;-66
2021/12/01 06:36:26;;;;;;;1.50;1.40;;;;;;;1.88;80.26;94761.28;5120362;27;20655;-66
2021/12/01 06:38:55;;;;;;;2.30;2.10;;;;;;;2.19;79.45;94771.13;5122149;27;20201;-66
2021/12/01 06:41:22;;;;;;;2.60;1.40;;;;;;;2.59;78.67;94752.44;5120935;27;20585;-67
2021/12/01 06:43:48;;;;;;;1.63;1.53;;;;;;;2.96;77.04;94773.06;5121867;27;20654;-66
2021/12/01 06:46:15;;;;;;;1.90;1.80;;;;;;;3.73;75.88;94765.50;5120492;27;20315;-68
2021/12/01 06:48:42;;;;;;;2.37;1.63;;;;;;;5.06;71.17;94766.94;5121622;27;20999;-67
2021/12/01 06:51:09;;;;;;;1.97;1.87;;;;;;;6.21;67.95;94775.66;5120746;27;20204;-67
2021/12/01 06:53:36;;;;;;;2.37;1.80;;;;;;;7.89;61.91;94770.69;5122360;27;20284;-68
2021/12/01 06:56:04;;;;;;;4.73;1.83;;;;;;;9.82;53.63;94781.50;5121075;27;20200;-65
2021/12/01 06:58:31;;;;;;;2.63;2.42;;;;;;;10.40;51.63;94772.59;5121826;27;20196;-68
2021/12/01 07:00:58;;;;;;;3.40;3.03;;;;;;;11.06;48.74;94777.72;5121633;27;20201;-66
2021/12/01 07:03:25;;;;;;;7.68;3.80;;;;;;;11.42;47.70;94783.81;5120543;27;20189;-67
2021/12/01 07:05:52;;;;;;;5.78;4.18;;;;;;;12.40;45.66;94782.19;5121444;27;20265;-67
2021/12/01 07:08:19;;;;;;;8.57;7.32;;;;;;;12.67;44.16;94791.13;5120848;27;20196;-68
2021/12/01 07:10:46;;;;;;;13.07;8.27;;;;;;;11.40;44.00;94793.25;5120305;27;20204;-68
2021/12/01 07:13:15;;;;;;;18.75;9.52;;;;;;;11.86;43.60;94796.47;5121791;27;20201;-68
2021/12/01 07:15:41;;;;;;;15.02;9.00;;;;;;;11.29;44.15;94780.16;5119631;27;20681;-66
2021/12/01 07:18:09;;;;;;;13.70;8.60;;;;;;;11.19;45.91;94771.22;5121910;27;20200;-68
2021/12/01 07:20:36;;;;;;;12.68;8.68;;;;;;;12.12;43.90;94775.78;5120448;27;20245;-69
2021/12/01 07:23:03;;;;;;;15.18;8.95;;;;;;;10.97;46.13;94775.50;5121662;27;20192;-68
2021/12/01 07:25:30;;;;;;;12.27;8.80;;;;;;;10.25;49.49;94772.34;5121348;27;21146;-68
2021/12/01 07:27:57;;;;;;;20.45;9.65;;;;;;;8.64;53.17;94779.47;5120153;27;20678;-67
2021/12/01 07:30:25;;;;;;;13.23;8.18;;;;;;;7.45;57.71;94787.84;5121296;27;20617;-68
2021/12/01 07:32:52;;;;;;;11.02;7.32;;;;;;;7.29;59.38;94781.53;5120321;27;20228;-67
2021/12/01 07:35:19;;;;;;;20.23;8.02;;;;;;;7.70;60.24;94777.91;5121471;27;20560;-67
2021/12/01 07:37:46;;;;;;;17.38;7.90;;;;;;;8.12;58.00;94780.16;5120143;27;20738;-66
2021/12/01 07:40:13;;;;;;;10.80;6.07;;;;;;;8.01;58.80;94782.97;5121256;27;20200;-66
2021/12/01 07:42:40;;;;;;;10.75;6.40;;;;;;;8.01;57.82;94777.91;5120545;27;20236;-66
2021/12/01 07:45:08;;;;;;;10.20;6.70;;;;;;;8.47;57.38;94782.50;5120095;27;20293;-67
2021/12/01 07:47:36;;;;;;;13.90;7.47;;;;;;;9.44;54.18;94788.69;5120369;27;20204;-66
2021/12/01 07:50:03;;;;;;;13.85;8.05;;;;;;;7.67;57.72;94777.19;5121342;28;20200;-67
2021/12/01 07:52:31;;;;;;;11.93;7.70;;;;;;;5.94;64.23;94808.16;5119854;27;20284;-67
2021/12/01 07:54:58;;;;;;;11.73;7.85;;;;;;;5.28;67.26;94800.97;5121362;27;21873;-68
2021/12/01 07:57:24;;;;;;;16.67;8.15;;;;;;;6.18;65.43;94822.00;5120035;27;20213;-67
2021/12/01 07:59:51;;;;;;;11.30;7.10;;;;;;;6.28;65.82;94808.31;5120585;28;20251;-68
2021/12/01 08:02:19;;;;;;;14.77;8.20;;;;;;;6.57;63.33;94807.69;5119914;27;20204;-67
2021/12/01 08:04:47;;;;;;;11.77;6.63;;;;;;;6.72;63.13;94814.91;5120085;27;20200;-68
2021/12/01 08:07:15;;;;;;;12.13;7.75;;;;;;;7.04;62.16;94820.91;5121064;27;20842;-69
2021/12/01 08:09:42;;;;;;;9.95;7.57;;;;;;;7.22;61.05;94828.03;5119564;28;20203;-68
2021/12/01 08:12:11;;;;;;;16.83;7.63;;;;;;;6.79;65.09;94818.97;5119380;28;20188;-69
2021/12/01 08:14:38;;;;;;;17.33;6.90;;;;;;;6.48;63.09;94820.50;5119944;27;20199;-67
2021/12/01 08:17:05;;;;;;;12.18;7.35;;;;;;;6.53;65.75;94821.22;5120305;28;20651;-68
2021/12/01 08:19:32;;;;;;;15.30;8.00;;;;;;;6.69;65.22;94825.06;5119018;28;20214;-68
2021/12/01 08:22:00;;;;;;;10.32;7.85;;;;;;;6.66;64.99;94826.84;5120826;27;20208;-68
2021/12/01 08:24:27;;;;;;;16.42;7.50;;;;;;;6.80;65.03;94822.31;5119210;27;20658;-66
2021/12/01 08:26:54;;;;;;;16.45;9.75;;;;;;;6.72;62.49;94830.06;5120389;28;20741;-66
2021/12/01 08:29:21;;;;;;;13.57;9.63;;;;;;;6.55;63.30;94816.16;5119448;28;20289;-66
2021/12/01 08:31:48;;;;;;;17.48;9.63;;;;;;;7.20;62.25;94822.19;5120608;27;20612;-66
2021/12/01 08:34:14;;;;;;;21.45;11.32;;;;;;;7.10;60.20;94813.19;5119505;27;20257;-66
2021/12/01 08:36:41;;;;;;;25.10;11.73;;;;;;;7.76;56.83;94812.34;5120548;28;20617;-66
2021/12/01 08:39:09;;;;;;;29.60;12.10;;;;;;;7.83;55.89;94809.63;5120686;27;20245;-66
2021/12/01 08:41:36;;;;;;;15.18;10.32;;;;;;;8.15;53.88;94818.88;5119559;28;20228;-66
2021/12/01 08:44:03;;;;;;;20.42;10.45;;;;;;;8.85;53.76;94829.47;5121044;27;20249;-66
2021/12/01 08:46:30;;;;;;;18.88;10.77;;;;;;;8.26;52.80;94826.13;5119080;27;20228;-67
2021/12/01 08:48:58;;;;;;;18.60;10.73;;;;;;;7.15;57.10;94821.50;5119336;28;20291;-67
2021/12/01 08:51:25;;;;;;;16.63;11.37;;;;;;;7.21;57.39;94821.31;5120630;27;20291;-68
2021/12/01 08:53:52;;;;;;;22.07;11.63;;;;;;;8.00;55.99;94826.84;5120298;27;20196;-69
2021/12/01 08:56:20;;;;;;;20.92;10.23;;;;;;;8.56;55.43;94819.41;5124565;27;20200;-67
2021/12/01 08:58:47;;;;;;;19.20;10.23;;;;;;;9.78;53.88;94823.91;5123140;27;20277;-69
2021/12/01 09:01:14;;;;;;;19.85;11.10;;;;;;;10.41;51.59;94829.31;5124082;27;20284;-66
2021/12/01 09:03:40;;;;;;;13.48;9.68;;;;;;;11.32;50.55;94820.72;5122941;27;20192;-67
2021/12/01 09:06:11;;;;;;;26.98;10.68;;;;;;;12.19;47.64;94815.38;5123684;27;20339;-67
2021/12/01 09:08:39;;;;;;;16.20;9.23;;;;;;;12.85;45.85;94817.53;5122883;27;20257;-68
2021/12/01 09:11:06;;;;;;;14.63;8.00;;;;;;;12.89;46.66;94824.94;5122731;27;20220;-66
2021/12/01 09:13:36;;;;;;;11.43;7.53;;;;;;;12.38;46.04;94835.75;5123893;27;20280;-68
2021/12/01 09:16:03;;;;;;;9.60;6.47;;;;;;;12.38;46.78;94830.66;5122547;27;20196;-68
2021/12/01 09:18:31;;;;;;;9.05;6.38;;;;;;;11.41;48.75;94814.41;5122687;27;20952;-66
2021/12/01 09:20:59;;;;;;;7.63;5.78;;;;;;;11.10;50.33;94825.84;5123689;27;20249;-67
2021/12/01 09:23:26;;;;;;;10.20;7.60;;;;;;;11.06;49.71;94831.09;5122445;27;20200;-69
2021/12/01 09:25:53;;;;;;;9.00;5.68;;;;;;;10.27;50.36;94836.63;5123435;27;20236;-69
2021/12/01 09:28:23;;;;;;;6.40;5.50;;;;;;;9.96;52.12;94842.75;5122460;27;20253;-67
2021/12/01 09:30:53;;;;;;;13.38;7.18;;;;;;;10.08;51.26;94836.44;5123446;27;20189;-67
2021/12/01 09:33:20;;;;;;;7.72;6.45;;;;;;;9.72;53.53;94829.19;5123712;27;20201;-66
2021/12/01 09:35:47;;;;;;;11.48;6.90;;;;;;;9.46;54.01;94835.13;5122047;27;20240;-67
2021/12/01 09:38:16;;;;;;;12.07;7.53;;;;;;;8.60;55.03;94836.16;5122475;27;20250;-66
2021/12/01 09:40:47;;;;;;;14.00;7.10;;;;;;;8.18;57.97;94821.28;5123366;27;20208;-66
2021/12/01 09:43:14;;;;;;;13.07;7.28;;;;;;;7.89;58.28;94818.75;5122342;27;20297;-67
2021/12/01 09:45:43;;;;;;;13.27;7.60;;;;;;;7.35;60.99;94818.47;5122991;27;20754;-67
2021/12/01 09:48:11;;;;;;;12.27;7.57;;;;;;;6.45;64.00;94828.13;5123277;27;20224;-66
2021/12/01 09:50:39;;;;;;;15.23;7.85;;;;;;;6.45;64.64;94807.94;5122078;27;20204;-66
2021/12/01 09:53:06;;;;;;;16.05;9.05;;;;;;;6.64;64.09;94811.75;5122304;27;20212;-66
2021/12/01 09:55:33;;;;;;;16.33;8.88;;;;;;;6.89;63.89;94811.19;5122904;27;20659;-67
2021/12/01 09:58:03;;;;;;;13.95;8.45;;;;;;;6.94;63.52;94814.41;5121908;27;20200;-66
2021/12/01 10:00:30;;;;;;;12.60;8.05;;;;;;;7.08;63.44;94807.34;5121550;27;20658;-67
2021/12/01 10:02:58;;;;;;;13.50;7.75;;;;;;;6.82;63.46;94801.22;5122966;27;20200;-68
2021/12/01 10:06:04;;;;;;;10.73;6.78;;;;;;;6.67;63.73;94818.41;5120723;27;20200;-68
2021/12/01 10:08:35;;;;;;;8.82;5.47;;;;;;;6.79;63.75;94811.38;5122776;27;20414;-68
2021/12/01 10:11:06;;;;;;;9.38;5.38;;;;;;;6.81;63.55;94811.34;5121346;27;20287;-66
2021/12/01 10:13:37;;;;;;;6.68;4.80;;;;;;;6.64;65.19;94816.78;5122919;27;20207;-68
2021/12/01 10:16:05;;;;;;;9.48;5.00;;;;;;;6.81;64.77;94814.72;5121539;27;20201;-69
2021/12/01 10:18:37;;;;;;;5.75;5.03;;;;;;;6.62;65.50;94813.47;5122483;27;20204;-67
2021/12/01 10:21:06;;;;;;;6.10;4.30;;;;;;;6.38;66.02;94808.97;5121283;27;20188;-68
2021/12/01 10:23:36;;;;;;;9.68;5.30;;;;;;;6.35;66.09;94814.06;5122246;27;20299;-67
2021/12/01 10:26:12;;;;;;;11.05;5.50;;;;;;;6.47;65.51;94812.09;5120836;27;20288;-67
2021/12/01 10:28:41;;;;;;;6.63;5.28;;;;;;;6.35;65.76;94803.97;5122996;27;20223;-68
2021/12/01 10:31:08;;;;;;;7.93;4.88;;;;;;;6.25;65.84;94798.28;5122424;27;20728;-67
2021/12/01 10:33:35;;;;;;;6.82;4.90;;;;;;;6.09;67.41;94791.91;5120899;27;20245;-68
2021/12/01 10:36:06;;;;;;;7.88;4.38;;;;;;;6.31;66.67;94815.81;5122577;27;20196;-68
2021/12/01 10:38:37;;;;;;;6.45;4.70;;;;;;;6.44;66.47;94814.69;5121183;27;20284;-67
2021/12/01 10:41:10;;;;;;;11.00;5.13;;;;;;;6.74;65.40;94817.41;5121051;27;20283;-67
2021/12/01 10:43:45;;;;;;;10.43;5.45;;;;;;;6.53;66.17;94818.72;5122446;27;20192;-66
2021/12/01 10:46:14;;;;;;;6.00;4.90;;;;;;;6.34;67.22;94807.34;5121743;27;20192;-66
2021/12/01 10:48:42;;;;;;;9.05;5.10;;;;;;;6.52;64.90;94812.00;5120724;27;20261;-66
2021/12/01 10:51:31;;;;;;;8.90;4.93;;;;;;;6.37;68.20;94804.78;5122277;27;20197;-67
2021/12/01 10:53:59;;;;;;;11.27;5.78;;;;;;;6.12;67.13;94796.88;5121869;27;20192;-67
2021/12/01 10:56:26;;;;;;;7.20;5.35;;;;;;;6.37;66.50;94792.16;5120664;27;20285;-66
2021/12/01 10:58:53;;;;;;;9.13;4.85;;;;;;;6.37;66.89;94792.16;5121893;27;20557;-67
2021/12/01 11:01:22;;;;;;;8.68;5.28;;;;;;;6.36;68.12;94787.97;5120389;27;20261;-69
2021/12/01 11:03:50;;;;;;;6.18;5.47;;;;;;;6.42;67.10;94785.31;5122229;27;20194;-66
2021/12/01 11:06:20;;;;;;;13.35;5.70;;;;;;;6.46;67.81;94775.09;5120202;27;20224;-67
2021/12/01 11:08:51;;;;;;;9.23;6.65;;;;;;;6.37;67.31;94777.00;5121521;27;20200;-67
2021/12/01 11:11:19;;;;;;;7.28;5.68;;;;;;;6.34;67.66;94769.50;5121635;27;20188;-67
2021/12/01 11:13:48;;;;;;;9.93;6.38;;;;;;;6.64;67.54;94765.47;5120329;27;20196;-65
2021/12/01 11:16:17;;;;;;;10.90;6.55;;;;;;;6.62;66.64;94768.03;5121502;27;20204;-67
2021/12/01 11:18:46;;;;;;;9.80;5.57;;;;;;;6.89;67.09;94765.72;5119230;27;20201;-66
2021/12/01 11:21:15;;;;;;;8.20;4.93;;;;;;;6.66;67.75;94776.38;5120293;27;20189;-67
2021/12/01 11:23:43;;;;;;;7.18;5.25;;;;;;;6.59;67.20;94765.56;5121881;27;20610;-66
2021/12/01 11:26:12;;;;;;;9.07;4.60;;;;;;;6.58;67.27;94761.38;5119989;27;20255;-67
2021/12/01 11:28:43;;;;;;;10.55;4.03;;;;;;;6.52;68.04;94759.00;5120958;27;20714;-67
2021/12/01 11:31:19;;;;;;;9.05;4.07;;;;;;;6.74;67.71;94757.63;5120330;27;20208;-67
2021/12/01 11:33:47;;;;;;;10.55;4.22;;;;;;;6.96;66.59;94757.09;5121193;27;20236;-65
2021/12/01 11:36:16;;;;;;;9.00;3.30;;;;;;;6.75;66.35;94764.34;5120920;27;20468;-65
2021/12/01 11:38:44;;;;;;;4.13;3.03;;;;;;;6.71;66.80;94757.69;5116470;27;20200;-68
2021/12/01 11:41:11;;;;;;;3.75;3.38;;;;;;;6.64;66.18;94751.16;5108128;28;20189;-66
2021/12/01 11:43:40;;;;;;;4.85;3.60;;;;;;;6.73;66.15;94765.22;5108145;28;20200;-67